createdAt,value
2023-06-18T00:01:50.751Z,77.42
2023-06-18T00:04:54.522Z,76.27
2023-06-18T00:07:57.188Z,76.65
2023-06-18T00:10:59.872Z,77.14
2023-06-18T00:14:02.840Z,76.66
2023-06-18T00:17:06.003Z,76.99
2023-06-18T00:20:08.969Z,76.77
2023-06-18T00:23:11.985Z,77.21
2023-06-18T00:26:14.689Z,76.32
2023-06-18T00:29:19.710Z,76.85
2023-06-18T00:32:22.155Z,76.12
2023-06-18T00:35:24.985Z,76.44
2023-06-18T00:38:28.253Z,77.02
2023-06-18T00:41:32.335Z,76.30
2023-06-18T00:44:35.091Z,77.53
2023-06-18T00:47:38.470Z,76.71
2023-06-18T00:50:42.127Z,77.74
2023-06-18T00:53:46.794Z,77.04
2023-06-18T00:56:52.305Z,77.47
2023-06-18T00:59:56.297Z,78.48
2023-06-18T01:03:00.545Z,80.05
2023-06-18T01:06:04.701Z,79.54
2023-06-18T01:09:08.530Z,79.20
2023-06-18T01:12:11.404Z,81.08
2023-06-18T01:15:13.983Z,80.17
2023-06-18T01:18:17.113Z,79.52
2023-06-18T01:21:22.466Z,78.70
2023-06-18T01:24:30.390Z,78.88
2023-06-18T01:27:37.479Z,78.91
2023-06-18T01:30:40.946Z,78.91
2023-06-18T01:33:43.693Z,78.84
2023-06-18T01:37:06.743Z,79.06
2023-06-18T01:40:18.427Z,79.00
2023-06-18T01:43:27.104Z,78.85
2023-06-18T01:46:30.934Z,79.32
2023-06-18T01:49:34.362Z,79.53
2023-06-18T01:52:42.150Z,79.59
2023-06-18T01:55:47.274Z,80.22
2023-06-18T01:58:52.000Z,80.25
2023-06-18T02:01:56.146Z,80.51
2023-06-18T02:04:59.112Z,80.65
2023-06-18T02:08:01.781Z,80.66
2023-06-18T02:11:04.648Z,81.64
2023-06-18T02:14:07.793Z,81.54
2023-06-18T02:17:11.605Z,82.50
2023-06-18T02:20:15.060Z,81.98
2023-06-18T02:23:20.820Z,82.17
2023-06-18T02:26:26.653Z,82.45
2023-06-18T02:29:29.321Z,82.39
2023-06-18T02:32:35.946Z,82.01
2023-06-18T02:35:38.454Z,81.37
2023-06-18T02:38:41.310Z,81.27
2023-06-18T02:41:46.616Z,81.23
2023-06-18T02:44:49.819Z,81.57
2023-06-18T02:47:52.340Z,81.11
2023-06-18T02:50:55.528Z,81.36
2023-06-18T02:54:00.433Z,81.21
2023-06-18T02:57:03.758Z,81.58
2023-06-18T03:00:13.008Z,80.96
2023-06-18T03:03:16.222Z,81.37
2023-06-18T03:06:19.232Z,81.08
2023-06-18T03:09:22.160Z,80.87
2023-06-18T03:12:25.609Z,81.24
2023-06-18T03:15:29.013Z,80.69
2023-06-18T03:18:31.612Z,80.76
2023-06-18T03:21:34.581Z,81.34
2023-06-18T03:24:39.702Z,81.09
2023-06-18T03:27:43.394Z,80.52
2023-06-18T03:30:47.067Z,80.36
2023-06-18T03:33:50.155Z,80.24
2023-06-18T03:36:52.922Z,80.31
2023-06-18T03:39:56.049Z,79.93
2023-06-18T03:42:58.936Z,79.50
2023-06-18T03:46:01.789Z,79.22
2023-06-18T03:49:05.991Z,78.99
2023-06-18T03:52:08.970Z,78.37
2023-06-18T03:55:11.474Z,78.02
2023-06-18T03:58:14.797Z,77.93
2023-06-18T04:01:19.227Z,77.95
2023-06-18T04:04:22.259Z,77.33
2023-06-18T04:07:24.751Z,76.90
2023-06-18T04:10:27.821Z,77.13
2023-06-18T04:13:30.807Z,76.38
2023-06-18T04:16:34.042Z,76.29
2023-06-18T04:19:37.151Z,75.93
2023-06-18T04:22:40.056Z,75.44
2023-06-18T04:25:43.918Z,75.20
2023-06-18T04:28:47.592Z,74.79
2023-06-18T04:31:50.490Z,74.52
2023-06-18T04:34:53.956Z,74.12
2023-06-18T04:37:56.659Z,74.00
2023-06-18T04:40:59.631Z,73.47
2023-06-18T04:44:02.129Z,73.08
2023-06-18T04:47:05.571Z,72.66
2023-06-18T04:50:08.832Z,72.41
2023-06-18T04:53:13.551Z,72.20
2023-06-18T04:56:16.398Z,71.71
2023-06-18T04:59:22.549Z,71.61
2023-06-18T05:02:27.192Z,71.10
2023-06-18T05:05:30.406Z,70.60
2023-06-18T05:08:33.209Z,70.21
2023-06-18T05:11:36.237Z,70.11
2023-06-18T05:14:38.688Z,69.78
2023-06-18T05:17:41.603Z,69.27
2023-06-18T05:20:44.901Z,68.98
2023-06-18T05:23:47.742Z,67.40
2023-06-18T05:26:50.409Z,67.95
2023-06-18T05:29:53.490Z,67.35
2023-06-18T05:32:56.149Z,66.52
2023-06-18T05:36:00.105Z,65.33
2023-06-18T05:39:03.725Z,63.69
2023-06-18T05:42:07.561Z,62.49
2023-06-18T05:45:11.089Z,62.05
2023-06-18T05:48:16.004Z,61.20
2023-06-18T05:51:19.279Z,60.72
2023-06-18T05:54:22.286Z,60.01
2023-06-18T05:57:24.817Z,59.65
2023-06-18T06:00:28.320Z,58.66
2023-06-18T06:03:31.458Z,57.77
2023-06-18T06:06:34.763Z,57.77
2023-06-18T06:09:38.056Z,57.39
2023-06-18T06:12:41.479Z,56.90
2023-06-18T06:15:44.374Z,54.42
2023-06-18T06:18:46.860Z,55.85
2023-06-18T06:21:49.797Z,54.03
2023-06-18T06:24:52.472Z,54.92
2023-06-18T06:27:55.639Z,53.16
2023-06-18T06:30:58.113Z,52.51
2023-06-18T06:34:01.591Z,49.22
2023-06-18T06:37:05.002Z,50.22
2023-06-18T06:40:09.256Z,48.93
2023-06-18T06:43:12.259Z,48.25
2023-06-18T06:46:16.088Z,46.53
2023-06-18T06:49:18.944Z,46.67
2023-06-18T06:52:21.698Z,47.05
2023-06-18T06:55:24.154Z,46.93
2023-06-18T06:58:27.432Z,47.02
2023-06-18T07:01:30.266Z,46.06
2023-06-18T07:04:33.787Z,45.25
2023-06-18T07:07:39.314Z,44.86
2023-06-18T07:10:42.322Z,45.07
2023-06-18T07:13:45.164Z,45.13
2023-06-18T07:16:49.190Z,44.30
2023-06-18T07:19:53.762Z,43.02
2023-06-18T07:22:56.522Z,43.27
2023-06-18T07:25:59.098Z,43.63
2023-06-18T07:29:02.082Z,43.74
2023-06-18T07:32:04.976Z,41.84
2023-06-18T07:35:08.474Z,42.16
2023-06-18T07:38:11.036Z,42.09
2023-06-18T07:41:13.745Z,41.15
2023-06-18T07:44:16.558Z,39.34
2023-06-18T07:47:19.741Z,38.05
2023-06-18T07:50:23.631Z,39.79
2023-06-18T07:53:26.886Z,39.81
2023-06-18T07:56:31.460Z,40.26
2023-06-18T07:59:34.471Z,39.81
2023-06-18T08:02:37.240Z,38.84
2023-06-18T08:05:40.139Z,38.35
2023-06-18T08:08:43.138Z,38.18
2023-06-18T08:11:46.149Z,38.41
2023-06-18T08:14:49.146Z,35.50
2023-06-18T08:17:53.805Z,37.79
2023-06-18T08:20:56.405Z,36.36
2023-06-18T08:23:59.388Z,36.28
2023-06-18T08:27:02.081Z,37.00
2023-06-18T08:30:06.228Z,37.82
2023-06-18T08:33:10.940Z,37.03
2023-06-18T08:36:13.653Z,36.27
2023-06-18T08:39:16.521Z,37.54
2023-06-18T08:42:21.921Z,36.23
2023-06-18T08:45:24.690Z,36.17
2023-06-18T08:48:32.421Z,35.94
2023-06-18T08:51:39.268Z,36.36
2023-06-18T08:54:43.726Z,36.51
2023-06-18T08:58:00.406Z,34.54
2023-06-18T09:01:04.422Z,35.05
2023-06-18T09:04:07.620Z,34.89
2023-06-18T09:07:10.536Z,34.81
2023-06-18T09:10:13.655Z,34.52
2023-06-18T09:13:16.671Z,34.10
2023-06-18T09:16:20.038Z,32.92
2023-06-18T09:19:24.504Z,34.29
2023-06-18T09:22:27.174Z,33.17
2023-06-18T09:25:34.536Z,32.93
2023-06-18T09:28:38.005Z,34.16
2023-06-18T09:31:45.895Z,33.83
2023-06-18T09:34:48.437Z,33.27
2023-06-18T09:37:51.380Z,33.11
2023-06-18T09:40:53.859Z,30.21
2023-06-18T09:43:57.254Z,29.89
2023-06-18T09:47:00.188Z,31.39
2023-06-18T09:50:06.465Z,31.67
2023-06-18T09:53:17.814Z,31.44
2023-06-18T09:56:22.105Z,31.12
2023-06-18T09:59:27.024Z,31.60
2023-06-18T10:02:29.760Z,31.60
2023-06-18T10:05:33.185Z,32.39
2023-06-18T10:08:38.810Z,29.24
2023-06-18T10:11:43.257Z,31.79
2023-06-18T10:14:47.250Z,30.32
2023-06-18T10:17:56.915Z,31.01
2023-06-18T10:21:06.123Z,31.05
2023-06-18T10:24:19.854Z,30.74
2023-06-18T10:27:22.746Z,31.65
2023-06-18T10:30:26.289Z,31.00
2023-06-18T10:33:32.301Z,32.02
2023-06-18T10:36:36.592Z,31.80
2023-06-18T10:39:39.711Z,31.76
2023-06-18T10:42:42.716Z,31.12
2023-06-18T10:46:15.558Z,31.38
2023-06-18T10:49:21.279Z,31.21
2023-06-18T10:52:26.263Z,31.36
2023-06-18T10:55:32.101Z,30.65
2023-06-18T10:58:38.774Z,30.81
2023-06-18T11:01:44.190Z,30.87
2023-06-18T11:04:49.314Z,30.40
2023-06-18T11:08:27.316Z,30.79
2023-06-18T11:11:32.280Z,30.64
2023-06-18T11:14:34.975Z,29.05
2023-06-18T11:17:39.519Z,30.38
2023-06-18T11:20:45.634Z,30.49
2023-06-18T11:23:49.734Z,30.66
2023-06-18T11:26:52.624Z,31.12
2023-06-18T11:29:58.427Z,31.33
2023-06-18T11:33:01.875Z,31.19
2023-06-18T11:36:13.441Z,31.09
2023-06-18T11:39:17.162Z,30.49
2023-06-18T11:42:21.656Z,31.03
2023-06-18T11:45:24.876Z,32.25
2023-06-18T11:48:27.799Z,32.20
2023-06-18T11:51:32.655Z,31.02
2023-06-18T11:54:40.155Z,31.35
2023-06-18T11:57:43.624Z,32.86
2023-06-18T12:00:46.053Z,33.53
2023-06-18T12:03:49.087Z,31.92
2023-06-18T12:06:51.539Z,32.41
2023-06-18T12:09:57.058Z,33.03
2023-06-18T12:13:11.707Z,34.72
2023-06-18T12:16:24.647Z,34.26
2023-06-18T12:19:28.145Z,33.38
2023-06-18T12:22:31.214Z,34.32
2023-06-18T12:25:34.033Z,34.45
2023-06-18T12:28:40.788Z,33.81
2023-06-18T12:31:44.751Z,33.79
2023-06-18T12:34:47.771Z,32.72
2023-06-18T12:37:51.367Z,32.51
2023-06-18T12:41:01.587Z,32.70
2023-06-18T12:44:05.504Z,32.55
2023-06-18T12:47:11.053Z,33.82
2023-06-18T12:50:21.154Z,32.57
2023-06-18T12:53:26.611Z,32.86
2023-06-18T12:56:29.592Z,32.75
2023-06-18T12:59:32.709Z,33.21
2023-06-18T13:02:35.499Z,33.71
2023-06-18T13:05:38.607Z,32.57
2023-06-18T13:08:41.426Z,31.72
2023-06-18T13:11:45.397Z,33.93
2023-06-18T13:14:48.201Z,32.98
2023-06-18T13:17:51.077Z,32.96
2023-06-18T13:20:56.249Z,33.42
2023-06-18T13:23:59.030Z,31.89
2023-06-18T13:27:01.504Z,30.82
2023-06-18T13:30:04.610Z,31.30
2023-06-18T13:33:07.187Z,30.84
2023-06-18T13:36:11.152Z,31.82
2023-06-18T13:39:13.893Z,30.96
2023-06-18T13:42:18.067Z,31.53
2023-06-18T13:45:22.042Z,32.25
2023-06-18T13:48:25.441Z,32.91
2023-06-18T13:51:27.967Z,33.18
2023-06-18T13:54:31.598Z,33.08
2023-06-18T13:57:34.262Z,32.39
2023-06-18T14:00:37.226Z,32.14
2023-06-18T14:03:41.120Z,32.25
2023-06-18T14:06:43.727Z,33.22
2023-06-18T14:09:47.429Z,32.59
2023-06-18T14:12:51.246Z,32.61
2023-06-18T14:15:56.733Z,33.00
2023-06-18T14:18:59.481Z,32.78
2023-06-18T14:22:02.578Z,33.33
2023-06-18T14:25:05.647Z,32.68
2023-06-18T14:28:08.436Z,32.58
2023-06-18T14:31:12.158Z,32.48
2023-06-18T14:34:15.711Z,32.51
2023-06-18T14:37:23.234Z,32.40
2023-06-18T14:40:25.946Z,32.67
2023-06-18T14:43:28.672Z,32.45
2023-06-18T14:46:31.447Z,31.94
2023-06-18T14:49:35.624Z,32.20
2023-06-18T14:52:39.149Z,32.54
2023-06-18T14:55:41.937Z,33.52
2023-06-18T14:58:44.904Z,33.02
2023-06-18T15:01:47.666Z,32.75
2023-06-18T15:04:53.468Z,32.65
2023-06-18T15:07:56.090Z,31.56
2023-06-18T15:10:58.935Z,32.44
2023-06-18T15:14:01.884Z,32.51
2023-06-18T15:17:06.485Z,33.25
2023-06-18T15:20:10.451Z,33.27
2023-06-18T15:23:13.446Z,34.25
2023-06-18T15:26:16.544Z,33.45
2023-06-18T15:29:19.318Z,33.55
2023-06-18T15:32:22.729Z,33.34
2023-06-18T15:35:25.743Z,33.30
2023-06-18T15:38:28.567Z,33.66
2023-06-18T15:41:31.276Z,33.92
2023-06-18T15:44:33.664Z,33.85
2023-06-18T15:47:36.531Z,34.18
2023-06-18T15:50:41.033Z,34.65
2023-06-18T15:53:43.962Z,34.47
2023-06-18T15:56:46.716Z,34.61
2023-06-18T15:59:49.878Z,34.68
2023-06-18T16:02:52.653Z,34.85
2023-06-18T16:05:55.680Z,34.44
2023-06-18T16:08:58.628Z,35.19
2023-06-18T16:12:01.379Z,35.70
2023-06-18T16:15:04.993Z,35.45
2023-06-18T16:18:09.069Z,35.25
2023-06-18T16:21:11.976Z,35.44
2023-06-18T16:24:17.625Z,35.61
2023-06-18T16:27:20.334Z,35.25
2023-06-18T16:30:23.451Z,35.20
2023-06-18T16:33:26.128Z,35.44
2023-06-18T16:36:30.786Z,36.37
2023-06-18T16:39:37.678Z,36.03
2023-06-18T16:42:40.532Z,37.48
2023-06-18T16:45:44.427Z,37.55
2023-06-18T16:48:47.408Z,38.25
2023-06-18T16:51:50.109Z,38.42
2023-06-18T16:54:52.931Z,38.15
2023-06-18T16:57:55.677Z,38.37
2023-06-18T17:00:58.915Z,38.63
2023-06-18T17:04:03.742Z,38.94
2023-06-18T17:07:06.884Z,38.63
2023-06-18T17:10:09.887Z,38.81
2023-06-18T17:13:13.591Z,39.13
2023-06-18T17:16:17.240Z,39.36
2023-06-18T17:19:20.871Z,39.17
2023-06-18T17:22:23.581Z,39.45
2023-06-18T17:25:26.521Z,39.45
2023-06-18T17:28:32.352Z,39.45
2023-06-18T17:31:35.304Z,38.16
2023-06-18T17:34:37.954Z,39.39
2023-06-18T17:37:40.754Z,39.71
2023-06-18T17:40:43.479Z,39.93
2023-06-18T17:43:46.682Z,40.23
2023-06-18T17:46:49.201Z,40.39
2023-06-18T17:49:52.641Z,40.73
2023-06-18T17:52:55.918Z,41.44
2023-06-18T17:55:59.409Z,41.24
2023-06-18T17:59:06.531Z,41.47
2023-06-18T18:02:09.839Z,41.76
2023-06-18T18:05:12.679Z,42.03
2023-06-18T18:08:17.016Z,42.59
2023-06-18T18:11:21.337Z,42.48
2023-06-18T18:14:24.389Z,42.88
2023-06-18T18:17:27.188Z,43.40
2023-06-18T18:20:31.516Z,43.92
2023-06-18T18:23:36.124Z,44.63
2023-06-18T18:26:48.462Z,45.70
2023-06-18T18:29:52.290Z,46.50
2023-06-18T18:32:55.065Z,48.01
2023-06-18T18:35:58.104Z,49.31
2023-06-18T18:39:00.861Z,50.59
2023-06-18T18:42:04.101Z,51.79
2023-06-18T18:45:08.436Z,52.61
2023-06-18T18:48:11.314Z,53.63
2023-06-18T18:51:14.528Z,54.73
2023-06-18T18:54:17.682Z,55.70
2023-06-18T18:57:21.640Z,56.45
2023-06-18T19:00:24.617Z,56.48
2023-06-18T19:03:28.617Z,56.94
2023-06-18T19:06:32.529Z,57.64
2023-06-18T19:09:36.489Z,57.98
2023-06-18T19:12:40.441Z,58.36
2023-06-18T19:15:44.241Z,59.05
2023-06-18T19:18:47.350Z,59.88
2023-06-18T19:21:50.579Z,59.99
2023-06-18T19:24:55.531Z,60.40
2023-06-18T19:28:01.435Z,60.65
2023-06-18T19:31:05.852Z,60.73
2023-06-18T19:34:08.992Z,60.76
2023-06-18T19:37:12.107Z,60.90
2023-06-18T19:40:15.106Z,61.21
2023-06-18T19:43:18.657Z,62.77
2023-06-18T19:46:21.969Z,64.10
2023-06-18T19:49:25.275Z,64.38
2023-06-18T19:52:28.494Z,65.26
2023-06-18T19:55:32.242Z,66.15
2023-06-18T19:58:35.453Z,67.46
2023-06-18T20:01:38.727Z,67.44
2023-06-18T20:04:41.861Z,67.59
2023-06-18T20:07:44.520Z,68.18
2023-06-18T20:10:47.376Z,68.53
2023-06-18T20:13:53.363Z,68.67
2023-06-18T20:16:56.547Z,68.17
2023-06-18T20:20:01.385Z,68.14
2023-06-18T20:23:04.684Z,68.28
2023-06-18T20:26:07.800Z,68.96
2023-06-18T20:29:10.637Z,69.33
2023-06-18T20:32:13.834Z,69.29
2023-06-18T20:35:17.140Z,69.08
2023-06-18T20:38:19.938Z,69.51
2023-06-18T20:41:22.953Z,71.31
2023-06-18T20:44:25.931Z,70.23
2023-06-18T20:47:29.008Z,70.05
2023-06-18T20:50:31.766Z,70.32
2023-06-18T20:53:35.131Z,70.62
2023-06-18T20:56:37.638Z,70.88
2023-06-18T20:59:40.495Z,71.48
2023-06-18T21:02:43.284Z,71.40
2023-06-18T21:05:46.303Z,71.26
2023-06-18T21:08:49.081Z,72.17
2023-06-18T21:11:52.055Z,72.16
2023-06-18T21:14:54.680Z,71.96
2023-06-18T21:17:57.527Z,72.65
2023-06-18T21:21:00.242Z,72.91
2023-06-18T21:24:03.492Z,74.01
2023-06-18T21:27:06.658Z,74.61
2023-06-18T21:30:10.364Z,74.70
2023-06-18T21:33:12.903Z,75.26
2023-06-18T21:36:15.783Z,75.65
2023-06-18T21:39:19.305Z,75.81
2023-06-18T21:42:22.294Z,75.99
2023-06-18T21:45:25.017Z,77.08
2023-06-18T21:48:28.006Z,81.10
2023-06-18T21:51:30.459Z,83.53
2023-06-18T21:54:33.359Z,80.01
2023-06-18T21:57:37.196Z,80.70
2023-06-18T22:00:40.204Z,80.86
2023-06-18T22:03:43.276Z,81.12
2023-06-18T22:06:45.981Z,80.92
2023-06-18T22:09:48.699Z,80.61
2023-06-18T22:12:51.175Z,80.68
2023-06-18T22:15:53.874Z,80.68
2023-06-18T22:18:59.501Z,80.66
2023-06-18T22:22:02.187Z,80.38
2023-06-18T22:25:06.031Z,80.16
2023-06-18T22:28:08.997Z,79.98
2023-06-18T22:31:11.699Z,80.17
2023-06-18T22:34:16.277Z,80.12
2023-06-18T22:37:22.784Z,79.95
2023-06-18T22:40:27.242Z,80.19
2023-06-18T22:43:30.604Z,79.96
2023-06-18T22:46:34.256Z,80.07
2023-06-18T22:49:36.852Z,80.57
2023-06-18T22:52:39.841Z,80.48
2023-06-18T22:55:42.499Z,79.83
2023-06-18T22:58:45.277Z,79.93
2023-06-18T23:01:48.534Z,79.42
2023-06-18T23:04:52.178Z,79.07
2023-06-18T23:07:55.029Z,79.39
2023-06-18T23:10:57.813Z,79.44
2023-06-18T23:14:00.523Z,80.91
2023-06-18T23:17:03.801Z,81.68
2023-06-18T23:20:07.213Z,81.21
2023-06-18T23:23:10.168Z,81.49
2023-06-18T23:26:12.912Z,81.44
2023-06-18T23:29:17.967Z,81.81
2023-06-18T23:32:20.801Z,81.65
2023-06-18T23:35:24.205Z,81.50
2023-06-18T23:38:29.801Z,81.52
2023-06-18T23:41:32.686Z,81.29
2023-06-18T23:44:35.212Z,81.52
2023-06-18T23:47:38.014Z,81.46
2023-06-18T23:50:41.439Z,82.56
2023-06-18T23:53:44.148Z,82.92
2023-06-18T23:56:46.834Z,82.80
2023-06-18T23:59:50.036Z,83.65
